Time;durP1;ratioP1;P1;durP2;ratioP2;P2;SDS_P1;SDS_P2;PMS_P1;PMS_P2;Temp;Humidity;BMP_temperature;BMP_pressure;BME280_temperature;BME280_humidity;BME280_pressure;Samples;Min_cycle;Max_cycle;Signal;HPM_P1;HPM_P2
2021/01/22 00:00:42;;;;;;;191.18;106.82;;;;;;;0.00;79.49;100934.72;5073672;28;20036;-79
2021/01/22 00:03:25;;;;;;;141.52;79.40;;;;;;;-0.53;81.29;100933.06;5067618;28;20017;-77
2021/01/22 00:06:04;;;;;;;95.38;55.28;;;;;;;-0.87;81.61;100936.13;5063556;28;20029;-79
2021/01/22 00:08:45;;;;;;;98.47;53.33;;;;;;;-0.91;82.50;100933.47;5062464;28;20421;-76
2021/01/22 00:11:45;;;;;;;90.57;51.97;;;;;;;-0.50;80.03;100939.81;5054792;28;20116;-78
2021/01/22 00:14:26;;;;;;;83.43;48.42;;;;;;;-0.74;80.72;100907.44;5054712;28;20090;-76
2021/01/22 00:17:08;;;;;;;86.30;49.15;;;;;;;-0.38;80.91;100937.72;5055733;28;20031;-76
2021/01/22 00:19:42;;;;;;;84.07;47.03;;;;;;;-0.62;81.01;100932.78;5054547;28;20017;-75
2021/01/22 00:22:08;;;;;;;88.32;48.08;;;;;;;-0.68;81.85;100902.63;5055084;28;20056;-76
2021/01/22 00:25:01;;;;;;;85.22;47.42;;;;;;;-0.41;79.86;100945.94;5055450;28;20028;-76
2021/01/22 00:27:28;;;;;;;81.97;46.13;;;;;;;-0.66;81.12;100945.09;5054345;28;20029;-76
2021/01/22 00:30:03;;;;;;;82.70;46.75;;;;;;;-0.63;81.64;100931.06;5055899;28;20082;-76
2021/01/22 00:32:29;;;;;;;79.15;45.50;;;;;;;-0.59;81.70;100919.53;5054319;28;20032;-76
2021/01/22 00:35:12;;;;;;;85.20;47.70;;;;;;;-0.77;82.78;100927.28;5055265;28;20025;-76
2021/01/22 00:37:50;;;;;;;80.80;45.75;;;;;;;-0.57;80.82;100942.91;5055300;28;20032;-76
2021/01/22 00:40:23;;;;;;;81.40;45.42;;;;;;;-0.51;80.94;100946.44;5054456;28;20033;-78
2021/01/22 00:43:02;;;;;;;81.75;48.67;;;;;;;-0.64;80.92;100934.38;5054173;28;20053;-77
2021/01/22 00:48:49;;;;;;;90.80;51.10;;;;;;;-0.17;79.94;100933.34;5055030;28;20121;-77
2021/01/22 00:51:33;;;;;;;99.40;53.75;;;;;;;-0.36;79.70;100931.97;5054817;28;20825;-76
2021/01/22 00:54:03;;;;;;;101.75;56.42;;;;;;;-0.14;80.90;100939.28;5055017;28;20051;-76
2021/01/22 00:56:41;;;;;;;104.70;59.10;;;;;;;-0.42;80.87;100916.78;5054003;28;20066;-77
2021/01/22 00:59:14;;;;;;;103.82;59.75;;;;;;;-0.63;80.61;100941.06;5053770;28;20041;-77
2021/01/22 01:01:46;;;;;;;106.97;60.10;;;;;;;-0.14;79.16;100933.47;5053709;28;20036;-77
2021/01/22 01:04:27;;;;;;;113.22;63.20;;;;;;;-0.59;81.02;100927.88;5055078;28;20029;-76
2021/01/22 01:06:55;;;;;;;119.90;66.13;;;;;;;-0.33;79.05;100927.06;5053591;28;20036;-77
2021/01/22 01:09:32;;;;;;;119.45;67.68;;;;;;;-0.41;79.75;100938.44;5054390;28;20037;-77
2021/01/22 01:11:57;;;;;;;113.53;63.90;;;;;;;-0.10;79.23;100942.75;5054405;28;20029;-76
2021/01/22 01:17:44;;;;;;;104.75;59.20;;;;;;;-0.40;79.56;100929.31;5054703;28;20090;-76
2021/01/22 01:20:11;;;;;;;115.13;60.80;;;;;;;-0.61;81.14;100926.97;5066016;28;20033;-76
2021/01/22 01:22:36;;;;;;;130.20;70.85;;;;;;;-0.56;81.34;100917.16;5056657;28;20077;-76
2021/01/22 01:25:13;;;;;;;108.13;59.53;;;;;;;-0.41;78.85;100903.50;5054620;28;20122;-76
2021/01/22 01:27:41;;;;;;;103.68;57.25;;;;;;;-0.64;80.38;100904.44;5062729;28;20047;-75
2021/01/22 01:30:19;;;;;;;101.40;55.67;;;;;;;-0.43;80.39;100904.25;5057645;28;20028;-77
2021/01/22 01:33:05;;;;;;;103.05;56.25;;;;;;;-0.83;82.11;100914.59;5053072;28;20033;-76
2021/01/22 01:35:38;;;;;;;103.65;56.35;;;;;;;-0.54;81.60;100891.44;5054265;28;20483;-78
2021/01/22 01:38:40;;;;;;;105.60;59.30;;;;;;;-0.70;81.84;100894.25;5052692;28;20052;-77
2021/01/22 01:41:16;;;;;;;102.38;56.83;;;;;;;-0.53;81.70;100887.28;5052606;28;20033;-75
2021/01/22 01:43:48;;;;;;;112.47;62.17;;;;;;;-0.57;81.47;100897.97;5052519;28;20035;-75
2021/01/22 01:46:33;;;;;;;114.63;65.15;;;;;;;-0.51;80.67;100899.00;5053602;28;20025;-76
2021/01/22 01:49:10;;;;;;;108.35;60.13;;;;;;;-0.68;80.61;100899.28;5054019;28;20028;-76
2021/01/22 01:52:03;;;;;;;104.90;59.10;;;;;;;-0.43;80.88;100885.13;5052586;28;20025;-75
2021/01/22 01:54:44;;;;;;;128.35;67.35;;;;;;;-0.95;83.52;100880.13;5052578;28;20098;-76
2021/01/22 02:00:45;;;;;;;93.10;48.50;;;;;;;-0.93;82.36;100866.06;5053573;28;20064;-78
2021/01/22 02:03:11;;;;;;;105.13;56.00;;;;;;;-1.02;82.98;100882.38;5053789;28;20057;-76
2021/01/22 02:05:38;;;;;;;105.70;58.58;;;;;;;-0.81;82.76;100875.56;5052356;28;20052;-76
2021/01/22 02:08:45;;;;;;;103.75;56.95;;;;;;;-0.65;83.60;100887.75;5052339;28;20033;-76
2021/01/22 02:11:47;;;;;;;123.30;67.65;;;;;;;-0.72;80.95;100895.84;5052180;28;20083;-77
2021/01/22 02:18:06;;;;;;;85.88;48.67;;;;;;;-0.53;81.74;100887.28;5052639;28;20036;-77
2021/01/22 02:21:14;;;;;;;96.10;52.05;;;;;;;-0.95;81.42;100877.63;5052369;28;20032;-78
2021/01/22 02:23:50;;;;;;;115.60;58.92;;;;;;;-0.81;81.10;100873.09;5052985;28;20060;-76
2021/01/22 02:27:03;;;;;;;89.85;49.90;;;;;;;-0.62;81.47;100867.03;5053068;28;20474;-77
2021/01/22 02:29:32;;;;;;;82.43;45.33;;;;;;;-0.84;82.50;100879.63;5052543;28;20040;-78
2021/01/22 02:32:29;;;;;;;78.10;44.78;;;;;;;-0.27;80.28;100872.28;5052100;28;20025;-79
2021/01/22 02:35:13;;;;;;;82.28;45.42;;;;;;;-0.58;81.12;100873.81;5051943;28;20094;-77
2021/01/22 02:37:48;;;;;;;83.38;45.95;;;;;;;-0.46;79.74;100864.22;5053455;28;20029;-79
2021/01/22 02:40:19;;;;;;;93.40;49.85;;;;;;;-0.56;80.24;100858.09;5063322;28;20013;-74
2021/01/22 02:42:49;;;;;;;83.88;48.42;;;;;;;-0.68;81.47;100861.84;5054519;28;20104;-78
2021/01/22 02:45:32;;;;;;;86.53;49.35;;;;;;;-0.39;81.75;100859.44;5052616;28;20092;-77
2021/01/22 02:48:04;;;;;;;107.68;57.40;;;;;;;-0.75;80.99;100860.81;5051620;28;20037;-77
2021/01/22 02:51:03;;;;;;;103.68;57.45;;;;;;;-0.97;82.00;100866.75;5052616;28;20029;-78
2021/01/22 02:53:33;;;;;;;103.05;55.92;;;;;;;-0.88;81.04;100844.63;5051541;28;20060;-77
2021/01/22 02:55:59;;;;;;;103.20;55.80;;;;;;;-0.74;81.31;100857.53;5062930;28;20118;-76
2021/01/22 02:59:14;;;;;;;95.78;51.83;;;;;;;-0.72;82.12;100858.41;5057165;28;20080;-79
2021/01/22 03:01:50;;;;;;;91.40;49.22;;;;;;;-1.01;80.73;100847.50;5055893;28;20033;-77
2021/01/22 03:04:47;;;;;;;88.18;47.97;;;;;;;-0.55;81.01;100858.91;5061019;28;20041;-77
2021/01/22 03:07:25;;;;;;;78.38;39.95;;;;;;;-1.19;81.88;100868.53;5064564;28;20033;-79
2021/01/22 03:09:58;;;;;;;77.57;40.40;;;;;;;-0.86;82.11;100877.09;5062983;28;20029;-78
2021/01/22 03:12:34;;;;;;;73.18;39.53;;;;;;;-0.95;81.05;100876.78;5062238;28;20083;-78
2021/01/22 03:15:27;;;;;;;85.15;45.03;;;;;;;-0.76;81.62;100880.72;5059910;28;20402;-78
2021/01/22 03:18:38;;;;;;;148.70;73.40;;;;;;;-1.40;82.00;100871.13;5051114;28;20017;-78
2021/01/22 03:21:10;;;;;;;126.00;64.75;;;;;;;-1.35;83.17;100831.41;5051336;28;20029;-74
2021/01/22 03:23:58;;;;;;;117.70;62.70;;;;;;;-0.89;82.80;100872.00;5052015;28;20124;-79
2021/01/22 03:26:35;;;;;;;102.07;56.08;;;;;;;-0.94;81.57;100846.06;5052185;28;20490;-79
2021/01/22 03:29:01;;;;;;;102.32;54.28;;;;;;;-0.69;79.86;100866.00;5049928;28;20043;-77
2021/01/22 03:31:40;;;;;;;111.00;60.00;;;;;;;-1.35;83.37;100853.84;5052396;28;20032;-78
2021/01/22 03:34:40;;;;;;;110.32;61.88;;;;;;;-1.10;80.92;100866.31;5051266;28;20060;-78
2021/01/22 03:37:21;;;;;;;115.70;64.70;;;;;;;-1.52;83.00;100843.28;5047413;28;20045;-79
2021/01/22 03:40:00;;;;;;;111.70;60.28;;;;;;;-1.49;83.77;100855.00;5050105;28;20029;-79
2021/01/22 03:42:44;;;;;;;118.18;62.10;;;;;;;-1.37;83.17;100852.94;5031896;28;20061;-78
2021/01/22 03:45:33;;;;;;;124.00;62.70;;;;;;;-1.12;82.86;100855.44;5032380;28;20030;-79
2021/01/22 03:48:07;;;;;;;107.85;57.75;;;;;;;-1.15;83.55;100842.88;5032327;28;20438;-78
2021/01/22 03:50:43;;;;;;;120.80;61.38;;;;;;;-0.89;80.85;100847.91;5031149;28;20040;-81
2021/01/22 03:53:24;;;;;;;111.20;57.83;;;;;;;-0.99;82.21;100843.41;5030948;28;20482;-78
2021/01/22 03:56:07;;;;;;;124.78;65.18;;;;;;;-1.13;81.27;100843.78;5031949;28;20021;-79
2021/01/22 03:58:33;;;;;;;123.18;68.05;;;;;;;-1.03;81.62;100866.56;5032518;28;20033;-79
2021/01/22 04:00:59;;;;;;;104.47;57.35;;;;;;;-0.87;80.65;100870.41;5043115;28;20021;-77
2021/01/22 04:03:48;;;;;;;97.15;53.17;;;;;;;-1.11;82.14;100875.44;5034883;28;20056;-77
2021/01/22 04:06:45;;;;;;;105.50;54.75;;;;;;;-1.33;82.81;100877.19;5031803;28;20040;-78
2021/01/22 04:09:26;;;;;;;100.55;52.90;;;;;;;-0.87;81.91;100875.38;5030746;28;20037;-81
2021/01/22 04:12:02;;;;;;;70.87;38.93;;;;;;;-1.06;82.33;100878.09;5030904;28;20483;-78
2021/01/22 04:14:27;;;;;;;96.07;49.95;;;;;;;-1.12;81.70;100888.72;5031088;28;20122;-80
2021/01/22 04:17:05;;;;;;;94.65;50.78;;;;;;;-1.12;82.03;100875.38;5030496;28;20483;-80
2021/01/22 04:19:43;;;;;;;90.55;50.28;;;;;;;-0.96;80.75;100883.44;5031817;28;20037;-79
2021/01/22 04:22:09;;;;;;;94.35;51.92;;;;;;;-1.18;81.29;100875.19;5031318;28;20076;-81
2021/01/22 04:25:09;;;;;;;100.22;54.38;;;;;;;-1.00;81.10;100880.78;5049839;28;20034;-82
2021/01/22 04:28:12;;;;;;;92.18;49.60;;;;;;;-1.03;81.25;100869.06;5030800;28;20079;-81
2021/01/22 04:30:58;;;;;;;97.63;52.55;;;;;;;-1.10;81.96;100887.13;5031792;28;20091;-82
2021/01/22 04:33:24;;;;;;;103.60;60.10;;;;;;;-1.01;81.52;100879.09;5031946;28;20140;-82
2021/01/22 04:35:58;;;;;;;95.03;56.15;;;;;;;-0.77;81.17;100882.38;5030899;28;20030;-80
2021/01/22 04:38:24;;;;;;;97.88;54.90;;;;;;;-1.31;81.87;100868.97;5030307;28;20030;-80
2021/01/22 04:41:00;;;;;;;97.32;53.88;;;;;;;-0.91;81.74;100881.94;5043907;28;20112;-80
2021/01/22 04:43:28;;;;;;;93.70;53.20;;;;;;;-0.90;81.07;100862.81;5053956;28;20024;-80
2021/01/22 04:45:57;;;;;;;86.15;48.45;;;;;;;-0.99;81.60;100868.34;5047602;28;20036;-79
2021/01/22 04:48:33;;;;;;;84.68;47.58;;;;;;;-1.04;82.07;100871.50;5034606;28;20483;-80
2021/01/22 04:51:09;;;;;;;91.90;49.13;;;;;;;-1.43;83.30;100875.16;5033976;28;20053;-77
2021/01/22 04:53:36;;;;;;;87.65;47.25;;;;;;;-1.02;82.19;100862.44;5034032;28;20128;-78
2021/01/22 04:56:10;;;;;;;89.47;49.28;;;;;;;-1.28;82.19;100860.72;5033922;28;20041;-78
2021/01/22 04:58:57;;;;;;;102.95;54.63;;;;;;;-1.05;81.76;100874.81;5033771;28;20037;-78
2021/01/22 05:01:30;;;;;;;99.03;54.20;;;;;;;-1.13;81.04;100879.53;5033761;28;20033;-76
2021/01/22 05:04:36;;;;;;;98.35;56.00;;;;;;;-1.63;85.29;100873.63;5033468;28;20029;-75
2021/01/22 05:07:20;;;;;;;104.03;54.35;;;;;;;-1.22;82.90;100853.44;5031603;28;20039;-75
2021/01/22 05:09:58;;;;;;;106.38;57.60;;;;;;;-0.90;83.41;100868.66;5032851;28;20073;-75
2021/01/22 05:12:35;;;;;;;114.53;62.90;;;;;;;-1.31;83.40;100855.63;5034030;28;20029;-76
2021/01/22 05:15:21;;;;;;;119.40;66.93;;;;;;;-0.92;82.83;100851.94;5032509;28;20036;-76
2021/01/22 05:18:13;;;;;;;126.93;68.10;;;;;;;-1.22;83.99;100861.78;5033228;28;20030;-79
2021/01/22 05:20:43;;;;;;;137.77;74.18;;;;;;;-1.58;84.85;100853.03;5040413;28;20009;-76
2021/01/22 05:23:33;;;;;;;126.97;66.90;;;;;;;-1.98;84.78;100847.47;5033221;28;20594;-77
2021/01/22 05:26:01;;;;;;;112.38;59.72;;;;;;;-1.91;85.85;100869.31;5032506;28;20043;-75
2021/01/22 05:28:54;;;;;;;104.65;56.22;;;;;;;-1.50;84.03;100854.16;5031226;28;20530;-75
2021/01/22 05:31:19;;;;;;;100.95;53.53;;;;;;;-1.61;84.17;100854.59;5032608;28;20112;-76
2021/01/22 05:34:25;;;;;;;115.38;56.70;;;;;;;-1.13;84.02;100852.09;5033588;28;20022;-77
2021/01/22 05:37:03;;;;;;;154.85;72.68;;;;;;;-1.47;82.83;100836.84;5031894;28;20065;-78
2021/01/22 05:39:32;;;;;;;139.10;69.85;;;;;;;-1.14;82.35;100842.06;5032796;28;20080;-78
2021/01/22 05:41:57;;;;;;;127.72;64.88;;;;;;;-1.14;81.63;100834.59;5033766;28;20033;-77
2021/01/22 05:44:25;;;;;;;122.70;64.30;;;;;;;-1.25;83.31;100810.97;5032096;28;20028;-75
2021/01/22 05:47:06;;;;;;;145.40;79.90;;;;;;;-1.38;81.68;100812.19;5032156;28;20029;-76
2021/01/22 05:49:32;;;;;;;150.85;82.88;;;;;;;-1.28;82.69;100860.72;5045440;28;20049;-77
2021/01/22 05:52:34;;;;;;;154.20;87.45;;;;;;;-0.69;83.12;100860.16;5031704;28;20102;-76
2021/01/22 05:55:32;;;;;;;141.38;75.82;;;;;;;-1.06;82.00;100860.63;5032689;28;20036;-78
2021/01/22 05:58:01;;;;;;;349.55;166.57;;;;;;;-0.89;82.86;100845.41;5033625;28;21354;-79
2021/01/22 06:00:29;;;;;;;324.52;153.90;;;;;;;-0.62;80.72;100837.94;5033630;28;20028;-79
2021/01/22 06:03:29;;;;;;;251.88;127.43;;;;;;;-0.40;79.85;100860.25;5032593;28;20541;-77
2021/01/22 06:09:37;;;;;;;227.27;124.22;;;;;;;-0.33;79.68;100863.75;5033134;28;20052;-78
2021/01/22 06:12:58;;;;;;;225.80;125.45;;;;;;;-0.08;78.08;100857.03;5032535;28;20032;-77
2021/01/22 06:15:43;;;;;;;265.33;136.40;;;;;;;-0.04;78.58;100850.50;5031945;28;20064;-77
2021/01/22 06:18:37;;;;;;;228.65;122.53;;;;;;;0.49;77.23;100860.31;5032191;28;20083;-77
2021/01/22 06:21:27;;;;;;;255.38;138.65;;;;;;;0.52;77.32;100867.88;5033494;28;20104;-77
2021/01/22 06:24:18;;;;;;;287.98;158.25;;;;;;;1.25;75.22;100854.72;5032001;28;20107;-77
2021/01/22 06:30:10;;;;;;;275.90;155.75;;;;;;;1.49;73.65;100847.72;5033158;28;20048;-77
2021/01/22 06:32:50;;;;;;;289.77;174.65;;;;;;;2.27;71.39;100836.88;5033489;28;20512;-77
2021/01/22 06:35:18;;;;;;;317.08;174.70;;;;;;;1.73;73.63;100849.13;5032008;28;20467;-77
2021/01/22 06:37:43;;;;;;;261.95;144.73;;;;;;;0.97;76.12;100868.19;5041212;28;20554;-79
2021/01/22 06:40:10;;;;;;;232.35;131.95;;;;;;;0.87;76.83;100864.63;5045801;28;20052;-79
2021/01/22 06:42:42;;;;;;;208.02;123.70;;;;;;;1.02;75.80;100853.28;5046528;28;20032;-77
2021/01/22 06:45:23;;;;;;;277.58;158.05;;;;;;;0.84;76.32;100849.53;5040044;28;20036;-77
2021/01/22 06:48:13;;;;;;;229.45;131.75;;;;;;;0.47;77.17;100851.91;5047092;28;20407;-77
2021/01/22 06:50:51;;;;;;;210.35;119.07;;;;;;;0.18;78.38;100845.25;5041461;28;20038;-77
2021/01/22 06:53:31;;;;;;;188.32;107.13;;;;;;;0.34;77.71;100856.50;5036604;28;20033;-78
2021/01/22 06:59:18;;;;;;;143.23;82.67;;;;;;;0.39;78.57;100857.50;5033075;28;20052;-77
2021/01/22 07:02:00;;;;;;;224.98;123.22;;;;;;;0.25;80.02;100861.28;5032215;28;20436;-77
2021/01/22 07:04:43;;;;;;;;;;;;;;;0.60;79.38;100855.56;5032067;28;20048;-78
2021/01/22 07:11:08;;;;;;;261.38;145.43;;;;;;;0.78;79.91;100851.03;5032686;28;20080;-78
2021/01/22 07:14:03;;;;;;;189.18;104.95;;;;;;;0.73;80.65;100853.41;4975107;28;20066;-78
2021/01/22 07:16:35;;;;;;;249.68;120.65;;;;;;;0.51;81.40;100843.69;4977478;28;20045;-79
2021/01/22 07:19:38;;;;;;;;;;;;;;;0.98;80.46;100851.53;5044586;28;20030;-79
2021/01/22 07:22:05;;;;;;;;;;;;;;;1.06;80.21;100855.06;5030685;28;19983;-79
2021/01/22 07:24:33;;;;;;;168.82;97.18;;;;;;;1.26;78.92;100853.88;5031777;28;20008;-78
2021/01/22 07:27:05;;;;;;;214.18;111.32;;;;;;;1.16;79.07;100847.81;5031263;28;20040;-78
2021/01/22 07:32:54;;;;;;;189.30;101.70;;;;;;;1.16;79.50;100852.81;5033043;28;20083;-79
2021/01/22 07:38:42;;;;;;;189.02;106.50;;;;;;;1.36;78.92;100859.16;5032364;28;20044;-83
2021/01/22 07:41:10;;;;;;;169.52;95.20;;;;;;;1.45;79.91;100846.81;5031329;28;20065;-82
2021/01/22 07:47:44;;;;;;;109.93;61.15;;;;;;;1.01;80.23;100854.13;5032237;28;20053;-80
2021/01/22 07:50:24;;;;;;;;;;;;;;;1.87;79.35;100833.53;5032559;28;20038;-79
2021/01/22 07:53:16;;;;;;;131.32;70.25;;;;;;;1.80;78.08;100839.22;5030784;28;19913;-78
2021/01/22 07:55:51;;;;;;;132.68;69.97;;;;;;;1.80;78.42;100824.19;5032202;28;20415;-81
2021/01/22 07:58:59;;;;;;;133.45;77.50;;;;;;;1.91;77.77;100848.66;5032646;28;20480;-83
2021/01/22 08:01:25;;;;;;;165.32;91.65;;;;;;;1.63;80.06;100852.25;5039742;28;20025;-79
2021/01/22 08:04:05;;;;;;;145.25;81.60;;;;;;;1.69;78.11;100851.53;5042511;28;20455;-78
2021/01/22 08:06:56;;;;;;;199.50;115.82;;;;;;;1.49;80.93;100847.72;5030953;28;20049;-80
2021/01/22 08:09:55;;;;;;;169.25;98.45;;;;;;;1.55;80.11;100847.88;5030946;28;20041;-80
2021/01/22 08:12:57;;;;;;;149.52;83.55;;;;;;;1.90;79.65;100841.13;5032262;28;20029;-81
2021/01/22 08:18:53;;;;;;;124.77;73.00;;;;;;;2.25;78.02;100835.13;5036469;28;20034;-80
2021/01/22 08:21:30;;;;;;;150.23;87.43;;;;;;;1.60;80.51;100836.31;5035093;28;20440;-79
2021/01/22 08:24:13;;;;;;;150.50;88.82;;;;;;;1.76;80.46;100824.13;5034446;28;20077;-80
2021/01/22 08:27:05;;;;;;;156.18;93.82;;;;;;;2.19;79.75;100828.34;5036085;28;20029;-79
2021/01/22 08:29:34;;;;;;;162.93;94.65;;;;;;;2.09;79.55;100833.13;5034479;28;20037;-80
2021/01/22 08:35:25;;;;;;;196.03;100.60;;;;;;;2.41;78.32;100829.59;5035760;28;20530;-76
2021/01/22 08:44:29;;;;;;;128.35;71.75;;;;;;;2.79;76.90;100815.22;5035377;28;20453;-76
2021/01/22 08:46:57;;;;;;;169.50;94.25;;;;;;;2.64;77.69;100816.63;5037484;28;20025;-76
2021/01/22 08:49:27;;;;;;;154.00;92.65;;;;;;;3.03;76.73;100811.41;5043880;28;20061;-76
2021/01/22 08:58:33;;;;;;;133.98;76.07;;;;;;;3.05;77.16;100797.22;5035059;28;20560;-78
2021/01/22 09:01:05;;;;;;;158.43;91.95;;;;;;;3.41;76.04;100801.94;5034671;28;20037;-78
2021/01/22 09:03:49;;;;;;;165.77;96.85;;;;;;;3.12;76.46;100795.66;5034552;28;20022;-78
2021/01/22 09:09:49;;;;;;;158.18;90.43;;;;;;;3.83;75.02;100787.41;5034761;28;20036;-78
2021/01/22 09:12:34;;;;;;;158.27;92.20;;;;;;;3.82;75.07;100789.94;5034532;28;20574;-79
2021/01/22 09:15:23;;;;;;;128.30;75.53;;;;;;;4.22;74.95;100779.47;5034583;28;20025;-76
2021/01/22 09:21:12;;;;;;;95.20;52.40;;;;;;;4.64;73.34;100769.81;5034664;28;20475;-78
2021/01/22 09:23:38;;;;;;;100.68;57.75;;;;;;;4.79;72.84;100759.88;5036630;28;20053;-78
2021/01/22 09:29:24;;;;;;;85.78;49.05;;;;;;;4.92;72.22;100749.06;5034391;28;20560;-77
2021/01/22 09:35:12;;;;;;;90.47;51.20;;;;;;;4.92;72.34;100740.66;5034107;28;20426;-76
2021/01/22 09:37:54;;;;;;;88.85;52.10;;;;;;;4.97;71.98;100731.47;5033802;28;20029;-77
2021/01/22 09:40:39;;;;;;;99.55;56.85;;;;;;;4.97;71.86;100727.25;5034053;28;20083;-77
2021/01/22 09:43:25;;;;;;;104.13;60.55;;;;;;;5.06;70.74;100724.81;5034196;28;20025;-78
2021/01/22 09:45:57;;;;;;;112.35;63.72;;;;;;;5.27;70.68;100717.34;5033823;28;20026;-78
2021/01/22 09:48:53;;;;;;;111.25;63.97;;;;;;;5.24;71.42;100724.91;5032623;28;20029;-78
2021/01/22 09:51:54;;;;;;;95.97;56.20;;;;;;;5.33;71.37;100715.72;5032633;28;20092;-77
2021/01/22 09:54:42;;;;;;;99.97;57.47;;;;;;;5.56;71.73;100716.66;5033635;28;20029;-78
2021/01/22 09:57:20;;;;;;;98.88;58.58;;;;;;;5.98;69.96;100700.00;5032505;28;20069;-78
2021/01/22 10:03:08;;;;;;;76.75;45.83;;;;;;;5.83;68.44;100697.44;5034011;28;20060;-78
2021/01/22 10:05:47;;;;;;;104.15;61.72;;;;;;;6.25;68.67;100685.75;5032374;28;20025;-78
2021/01/22 10:08:15;;;;;;;109.75;64.25;;;;;;;6.55;65.98;100679.03;5032104;28;20049;-78
2021/01/22 10:10:44;;;;;;;95.82;58.03;;;;;;;6.57;67.08;100672.28;5033304;28;20029;-78
2021/01/22 10:13:19;;;;;;;104.00;60.05;;;;;;;6.70;63.91;100656.28;5032988;28;20032;-77
2021/01/22 10:15:55;;;;;;;102.10;60.55;;;;;;;6.62;64.81;100687.41;5032298;28;20032;-79
2021/01/22 10:21:36;;;;;;;109.88;64.00;;;;;;;7.00;64.28;100660.41;5032826;28;20037;-77
2021/01/22 10:24:16;;;;;;;114.70;69.03;;;;;;;7.26;63.01;100662.88;5033035;28;20060;-81
2021/01/22 10:26:46;;;;;;;109.75;66.38;;;;;;;7.29;61.67;100666.22;5032381;28;20111;-80
2021/01/22 10:29:17;;;;;;;108.40;64.88;;;;;;;7.42;62.10;100647.63;5033458;28;20038;-77
2021/01/22 10:34:58;;;;;;;96.32;57.83;;;;;;;8.01;59.22;100649.81;5033026;28;20131;-80
2021/01/22 10:37:39;;;;;;;97.15;58.92;;;;;;;7.81;59.55;100633.91;5031259;28;20124;-81
2021/01/22 10:40:20;;;;;;;104.63;61.97;;;;;;;8.10;59.45;100631.19;5031765;28;20025;-79
2021/01/22 10:43:00;;;;;;;99.77;58.87;;;;;;;8.10;58.49;100618.53;5032762;28;20431;-78
2021/01/22 10:45:27;;;;;;;88.32;53.70;;;;;;;8.37;58.01;100588.78;5041062;28;20056;-75
2021/01/22 10:48:06;;;;;;;109.00;67.47;;;;;;;8.34;58.35;100608.25;5033706;28;20415;-81
2021/01/22 10:51:04;;;;;;;109.53;70.85;;;;;;;8.95;56.40;100613.53;5031602;28;20029;-81
2021/01/22 10:53:43;;;;;;;88.53;54.78;;;;;;;8.61;55.84;100590.25;5031592;28;20040;-81
2021/01/22 10:56:09;;;;;;;85.00;53.90;;;;;;;8.71;57.05;100607.84;5031442;28;20017;-80
2021/01/22 10:58:45;;;;;;;77.20;50.30;;;;;;;9.24;54.40;100601.34;5031630;28;20033;-80
2021/01/22 11:01:23;;;;;;;82.03;50.28;;;;;;;9.10;55.17;100580.38;5032503;28;20022;-83
2021/01/22 11:04:07;;;;;;;57.72;39.85;;;;;;;9.27;55.17;100596.25;5032374;28;20026;-82
2021/01/22 11:06:33;;;;;;;67.55;43.88;;;;;;;9.17;54.61;100587.06;5031155;28;20021;-81
2021/01/22 11:09:02;;;;;;;69.28;44.92;;;;;;;9.28;54.78;100580.16;5031262;28;20029;-82
2021/01/22 11:11:30;;;;;;;74.57;48.80;;;;;;;9.08;55.71;100575.31;5032005;28;20029;-82
2021/01/22 11:13:56;;;;;;;83.45;53.15;;;;;;;9.30;54.55;100553.91;5032528;28;20021;-80
2021/01/22 11:16:41;;;;;;;75.75;50.75;;;;;;;9.68;53.21;100563.50;5032740;28;20372;-79
2021/01/22 11:19:13;;;;;;;91.85;55.03;;;;;;;9.74;54.18;100555.81;5031239;28;20052;-81
2021/01/22 11:21:52;;;;;;;97.93;62.35;;;;;;;9.90;54.05;100541.16;5032233;28;20032;-77
2021/01/22 11:24:53;;;;;;;88.40;52.97;;;;;;;9.90;54.59;100549.63;5031135;28;20111;-81
2021/01/22 11:27:23;;;;;;;84.25;52.72;;;;;;;10.31;52.21;100539.63;5031300;28;20044;-81
2021/01/22 11:33:10;;;;;;;80.10;52.97;;;;;;;9.42;55.68;100530.06;5032162;28;20067;-83
2021/01/22 11:35:38;;;;;;;71.20;46.92;;;;;;;9.54;55.99;100534.94;5032193;28;20491;-83
2021/01/22 11:38:06;;;;;;;71.10;45.63;;;;;;;9.30;56.96;100533.59;5032070;28;20030;-83
2021/01/22 11:43:53;;;;;;;67.65;42.80;;;;;;;9.07;57.67;100511.94;5038981;28;20049;-82
2021/01/22 11:46:20;;;;;;;66.47;42.35;;;;;;;9.08;58.03;100503.47;5036794;28;20418;-82
2021/01/22 11:48:47;;;;;;;64.95;42.28;;;;;;;8.94;59.02;100518.03;5041980;28;20060;-81
2021/01/22 11:51:15;;;;;;;70.35;43.38;;;;;;;8.87;58.16;100516.44;5043731;28;20030;-79
2021/01/22 11:53:47;;;;;;;67.28;43.63;;;;;;;8.92;58.65;100500.31;5044696;28;20041;-83
2021/01/22 11:56:55;;;;;;;66.97;42.65;;;;;;;8.84;59.01;100497.03;5044523;28;20036;-80
2021/01/22 11:59:41;;;;;;;59.95;38.95;;;;;;;8.94;59.09;100488.44;5043282;28;20037;-84
2021/01/22 12:02:43;;;;;;;64.78;39.72;;;;;;;8.89;58.93;100486.84;5038353;28;20518;-83
2021/01/22 12:05:09;;;;;;;65.32;40.33;;;;;;;8.93;59.52;100470.72;5043943;28;20041;-84
2021/01/22 12:07:42;;;;;;;64.72;40.30;;;;;;;9.65;57.12;100478.97;5039834;28;20418;-79
2021/01/22 12:10:34;;;;;;;68.50;41.95;;;;;;;9.36;58.14;100477.69;5036372;28;20029;-87
2021/01/22 12:13:12;;;;;;;61.80;39.55;;;;;;;10.19;55.19;100470.41;5035934;28;20124;-79
2021/01/22 12:19:00;;;;;;;65.22;41.40;;;;;;;10.94;53.70;100471.41;5035802;28;20469;-83
2021/01/22 12:21:27;;;;;;;64.25;40.33;;;;;;;10.02;54.54;100441.91;5035549;28;20029;-85
2021/01/22 12:27:14;;;;;;;51.20;34.20;;;;;;;11.58;52.03;100460.59;5035877;28;20049;-83
2021/01/22 12:33:01;;;;;;;52.00;35.13;;;;;;;10.85;54.40;100466.53;5035828;28;20083;-83
2021/01/22 12:36:10;;;;;;;49.65;32.63;;;;;;;10.32;55.19;100467.59;5034429;28;20436;-81
2021/01/22 12:42:01;;;;;;;44.88;28.15;;;;;;;10.96;54.00;100456.09;5035698;28;20557;-82
2021/01/22 12:44:38;;;;;;;43.45;29.88;;;;;;;11.39;53.07;100420.34;5033843;28;20036;-81
2021/01/22 12:47:03;;;;;;;39.75;26.88;;;;;;;11.47;52.58;100447.28;5033936;28;20033;-79
2021/01/22 12:50:03;;;;;;;51.95;30.40;;;;;;;11.63;52.62;100446.03;5034049;28;20052;-81
2021/01/22 12:52:31;;;;;;;51.03;32.38;;;;;;;11.26;54.63;100438.47;5034870;28;20029;-80
2021/01/22 12:55:06;;;;;;;38.70;27.45;;;;;;;10.82;56.35;100443.69;5035063;28;20017;-80
2021/01/22 12:57:40;;;;;;;30.52;20.77;;;;;;;10.16;58.18;100423.00;5035123;28;20032;-80
2021/01/22 13:00:28;;;;;;;36.53;23.55;;;;;;;10.31;58.53;100445.59;5033631;28;20040;-81
2021/01/22 13:03:07;;;;;;;50.25;31.40;;;;;;;10.25;59.47;100437.25;5035004;28;20036;-77
2021/01/22 13:05:32;;;;;;;45.97;28.23;;;;;;;10.39;58.34;100446.28;5033802;28;20121;-81
2021/01/22 13:08:38;;;;;;;42.70;26.73;;;;;;;10.13;59.68;100440.03;5034727;28;20025;-81
2021/01/22 13:11:14;;;;;;;38.50;25.88;;;;;;;9.95;60.81;100440.31;5033653;28;20434;-79
2021/01/22 13:13:40;;;;;;;54.65;31.85;;;;;;;9.86;61.82;100427.81;5036295;28;20032;-79
2021/01/22 13:16:37;;;;;;;71.93;42.22;;;;;;;10.18;61.39;100445.88;5033826;28;20021;-79
2021/01/22 13:19:49;;;;;;;52.38;31.38;;;;;;;10.09;60.90;100434.13;5034562;28;20519;-78
2021/01/22 13:25:29;;;;;;;51.85;31.95;;;;;;;10.06;61.22;100413.03;5035337;28;20386;-82
2021/01/22 13:28:01;;;;;;;83.30;46.22;;;;;;;10.92;58.70;100416.34;5048690;28;20029;-80
2021/01/22 13:30:44;;;;;;;63.95;39.80;;;;;;;12.21;54.13;100417.34;5034509;28;20029;-81
2021/01/22 13:33:25;;;;;;;53.47;34.97;;;;;;;13.92;49.44;100411.13;5034026;28;20032;-82
2021/01/22 13:36:20;;;;;;;73.27;42.60;;;;;;;14.03;49.15;100404.78;5034298;28;20029;-79
2021/01/22 13:39:20;;;;;;;63.17;38.90;;;;;;;13.87;49.55;100407.06;5033281;28;20520;-80
2021/01/22 13:42:20;;;;;;;59.40;36.63;;;;;;;14.99;46.32;100405.50;5033131;28;20105;-81
2021/01/22 13:45:36;;;;;;;66.75;42.05;;;;;;;11.98;54.27;100414.59;5033038;28;20033;-81
2021/01/22 13:48:35;;;;;;;68.90;41.33;;;;;;;10.14;60.99;100424.75;5033050;28;20068;-84